MPDA

Details ICAO MPDA (DAV)
Name ENRIQUE MALEK INTL
Region Panama
Timezone America/Panama (UTC-5.0)
Plans Departing 31
Arriving 21
Stats Elevation 89 ft / 27 m (AMSL)
Location 8.391001° -82.434978°
Runways 1
Magnetic Variation 2.504° W
Sunrise 2017-12-13 11:36:17 UTC / 2017-12-13 06:36:17 Local
Sunset 2017-12-13 23:14:39 UTC / 2017-12-13 18:14:39 Local
Advertisement - Login to hide

Runways

ID Width Length Bearing (true) Bearing (mag) Surface Threshold Offset Overrun Length
04 148 ft / 45 m 6,923 ft / 2,110 m 37.70° 40.20° Asphalt 0 ft / 0 m 197 ft / 60 m
22 148 ft / 45 m 6,923 ft / 2,110 m 217.71° 220.21° Asphalt 0 ft / 0 m 0 ft / 0 m

Map

Weather


0- 5 10 15 20 25 30 35+ Temperature / ° C

Clouds and Precipitation
Forecast for 2017-12-14 06:00 UTC. Updated an hour ago

Ground ~20,000 ft ~40,000 ft Winds

METAR

MPDA 140300Z 29002KT CAVOK 23/22 Q1011

TAF

TAF AMD TAF AMD MPDA 140300Z 1400/1412 CNL

Frequencies

Ground 121.70 MHz GND
Tower 122.60 MHz MALEK TWR
Approach 119.20 MHz PANAMA APP
Approach 121.20 MHz PANAMA APP
Tower 118.70 MHz MALEK TWR
Approach 119.70 MHz PANAMA APP
Approach 123.30 MHz PANAMA APP
Warning: Do not use this data for real-world aviation or navigation. No guarantee of current accuracy is given.